createdAt,value
2022-10-28T00:01:53.445Z,2.03
2022-10-28T00:06:57.403Z,2.13
2022-10-28T00:12:02.987Z,1.98
2022-10-28T00:17:07.207Z,2.47
2022-10-28T00:22:11.210Z,2.80
2022-10-28T00:27:16.594Z,2.58
2022-10-28T00:32:20.702Z,3.17
2022-10-28T00:37:25.543Z,2.60
2022-10-28T00:42:31.197Z,2.47
2022-10-28T00:47:45.332Z,2.63
2022-10-28T00:52:53.538Z,2.20
2022-10-28T00:58:00.121Z,4.07
2022-10-28T01:03:04.596Z,2.50
2022-10-28T01:08:08.915Z,2.72
2022-10-28T01:13:22.224Z,2.20
2022-10-28T01:18:35.262Z,4.95
2022-10-28T01:23:50.078Z,5.70
2022-10-28T01:29:26.412Z,3.17
2022-10-28T01:34:38.223Z,2.53
2022-10-28T01:39:50.254Z,2.80
2022-10-28T01:45:03.073Z,2.00
2022-10-28T01:50:14.127Z,2.60
2022-10-28T01:55:22.642Z,1.40
2022-10-28T02:00:27.227Z,2.42
2022-10-28T02:05:44.630Z,2.10
2022-10-28T02:11:03.114Z,2.10
2022-10-28T02:16:15.572Z,2.50
2022-10-28T02:21:28.746Z,2.22
2022-10-28T02:26:38.835Z,2.35
2022-10-28T02:31:49.037Z,2.05
2022-10-28T02:36:56.722Z,2.28
2022-10-28T02:42:05.451Z,2.65
2022-10-28T02:47:15.634Z,2.90
2022-10-28T02:52:24.098Z,4.43
2022-10-28T02:57:31.108Z,7.20
2022-10-28T03:02:36.026Z,4.07
2022-10-28T03:07:41.556Z,3.05
2022-10-28T03:12:45.826Z,2.83
2022-10-28T03:17:50.169Z,2.80
2022-10-28T03:22:55.722Z,2.53
2022-10-28T03:28:00.112Z,2.97
2022-10-28T03:33:04.297Z,2.47
2022-10-28T03:38:09.910Z,2.15
2022-10-28T03:43:14.217Z,2.17
2022-10-28T03:48:18.323Z,4.35
2022-10-28T03:53:27.555Z,2.50
2022-10-28T03:58:37.281Z,16.02
2022-10-28T04:50:47.158Z,3.70
2022-10-28T04:55:51.385Z,5.53
2022-10-28T05:00:56.919Z,14.63
2022-10-28T05:06:02.412Z,17.35
2022-10-28T05:11:06.808Z,14.18
2022-10-28T05:16:12.179Z,10.13
2022-10-28T05:21:17.994Z,16.52
2022-10-28T05:26:22.149Z,16.05
2022-10-28T05:31:26.223Z,6.82
2022-10-28T05:36:31.552Z,9.88
2022-10-28T05:41:38.768Z,10.05
2022-10-28T05:46:42.987Z,6.18
2022-10-28T05:51:48.670Z,13.20
2022-10-28T05:56:52.704Z,14.00
2022-10-28T06:01:56.825Z,5.80
2022-10-28T06:07:02.319Z,4.78
2022-10-28T06:12:07.197Z,3.58
2022-10-28T06:17:11.284Z,3.67
2022-10-28T06:22:16.795Z,3.38
2022-10-28T06:27:20.826Z,11.65
2022-10-28T06:32:24.812Z,11.68
2022-10-28T06:37:32.277Z,16.67
2022-10-28T06:42:36.388Z,16.75
2022-10-28T06:47:42.107Z,9.15
2022-10-28T06:52:47.803Z,6.07
2022-10-28T06:57:53.367Z,3.35
2022-10-28T07:02:58.107Z,4.30
2022-10-28T07:08:03.655Z,3.50
2022-10-28T07:13:08.235Z,4.90
2022-10-28T07:18:12.317Z,3.60
2022-10-28T07:23:17.945Z,4.13
2022-10-28T07:28:23.133Z,4.03
2022-10-28T07:33:27.246Z,3.58
2022-10-28T07:38:33.001Z,3.22
2022-10-28T07:43:38.554Z,2.67
2022-10-28T07:48:42.703Z,2.50
2022-10-28T07:53:48.280Z,2.70
2022-10-28T07:58:52.480Z,3.10
2022-10-28T08:03:56.476Z,2.65
2022-10-28T08:09:01.849Z,2.85
2022-10-28T08:14:05.911Z,2.30
2022-10-28T08:19:09.822Z,2.63
2022-10-28T08:24:15.526Z,2.70
2022-10-28T08:29:19.576Z,2.65
2022-10-28T08:34:23.665Z,2.10
2022-10-28T08:39:29.084Z,1.83
2022-10-28T08:44:56.429Z,1.67
2022-10-28T08:50:06.452Z,1.77
2022-10-28T08:55:16.806Z,2.28
2022-10-28T09:00:26.109Z,1.25
2022-10-28T09:05:30.167Z,1.60
2022-10-28T09:10:54.478Z,1.45
2022-10-28T09:16:05.815Z,2.00
2022-10-28T09:21:20.787Z,2.17
2022-10-28T09:26:37.915Z,1.65
2022-10-28T09:31:47.483Z,1.55
2022-10-28T09:36:57.131Z,1.35
2022-10-28T09:42:05.102Z,1.70
2022-10-28T09:47:16.645Z,1.37
2022-10-28T09:52:26.457Z,1.77
2022-10-28T09:57:33.047Z,1.73
2022-10-28T10:02:40.508Z,1.85
2022-10-28T10:07:49.745Z,1.60
2022-10-28T10:12:58.997Z,1.58
2022-10-28T10:18:06.162Z,1.50
2022-10-28T10:23:24.104Z,1.55
2022-10-28T10:28:30.664Z,2.60
2022-10-28T10:33:40.428Z,1.73
2022-10-28T10:38:50.144Z,1.77
2022-10-28T10:43:55.524Z,1.70
2022-10-28T10:49:14.359Z,1.85
2022-10-28T10:59:28.967Z,1.60
2022-10-28T11:04:37.017Z,2.47
2022-10-28T11:09:42.428Z,1.50
2022-10-28T11:14:58.639Z,1.60
2022-10-28T11:20:25.059Z,1.30
2022-10-28T11:25:37.244Z,1.65
2022-10-28T11:30:55.300Z,1.48
2022-10-28T11:36:09.007Z,1.43
2022-10-28T11:41:24.384Z,1.95
2022-10-28T11:46:44.275Z,1.60
2022-10-28T11:51:56.729Z,1.65
2022-10-28T11:57:09.642Z,1.90
2022-10-28T12:02:37.237Z,1.35
2022-10-28T12:07:55.126Z,1.95
2022-10-28T12:13:13.434Z,1.88
2022-10-28T12:18:24.700Z,1.83
2022-10-28T12:23:33.100Z,1.70
2022-10-28T12:28:43.261Z,1.60
2022-10-28T12:33:53.979Z,1.60
2022-10-28T12:39:05.544Z,1.65
2022-10-28T12:44:14.786Z,1.70
2022-10-28T12:49:26.712Z,1.50
2022-10-28T12:54:38.845Z,1.30
2022-10-28T12:59:46.845Z,2.40
2022-10-28T13:04:52.583Z,1.77
2022-10-28T13:10:06.924Z,1.85
2022-10-28T13:15:39.432Z,1.48
2022-10-28T13:20:49.811Z,2.10
2022-10-28T13:26:04.276Z,1.75
2022-10-28T13:31:10.365Z,1.95
2022-10-28T13:36:22.853Z,1.63
2022-10-28T13:41:35.674Z,1.92
2022-10-28T13:47:05.468Z,1.75
2022-10-28T13:52:22.737Z,2.53
2022-10-28T13:57:30.142Z,2.08
2022-10-28T14:02:39.407Z,2.08
2022-10-28T14:07:57.282Z,3.40
2022-10-28T14:13:04.694Z,2.00
2022-10-28T14:24:12.060Z,10.95
2022-10-28T14:29:25.259Z,2.45
2022-10-28T14:34:40.777Z,1.70
2022-10-28T14:40:04.369Z,3.17
2022-10-28T14:45:27.854Z,2.65
2022-10-28T14:50:40.764Z,2.67
2022-10-28T14:55:51.271Z,2.58
2022-10-28T15:01:09.896Z,1.98
2022-10-28T15:06:28.771Z,2.10
2022-10-28T15:11:36.298Z,3.33
2022-10-28T15:16:48.126Z,3.63
2022-10-28T15:22:03.531Z,2.75
2022-10-28T15:27:13.883Z,4.03
2022-10-28T15:32:33.908Z,4.30
2022-10-28T15:37:38.017Z,5.28
2022-10-28T15:42:50.892Z,6.57
2022-10-28T15:47:56.882Z,6.57
2022-10-28T15:53:37.953Z,10.07
2022-10-28T15:58:44.440Z,13.68
2022-10-28T16:03:48.923Z,6.93
2022-10-28T16:09:06.514Z,5.78
2022-10-28T16:14:29.847Z,15.70
2022-10-28T16:19:39.425Z,8.68
2022-10-28T16:24:43.762Z,7.85
2022-10-28T16:29:49.980Z,9.13
2022-10-28T16:34:54.069Z,24.00
2022-10-28T16:39:58.297Z,14.85
2022-10-28T16:45:03.682Z,9.90
2022-10-28T16:50:08.449Z,5.35
2022-10-28T16:55:19.559Z,6.07
2022-10-28T17:00:25.377Z,12.20
2022-10-28T17:05:29.614Z,5.03
2022-10-28T17:10:33.583Z,6.28
2022-10-28T17:15:39.253Z,6.82
2022-10-28T17:20:43.344Z,10.82
2022-10-28T17:25:57.238Z,13.82
2022-10-28T17:31:09.015Z,16.90
2022-10-28T17:36:13.122Z,18.50
2022-10-28T17:41:18.371Z,15.90
2022-10-28T17:46:24.294Z,11.27
2022-10-28T17:51:31.217Z,14.52
2022-10-28T17:56:35.722Z,11.40
2022-10-28T18:01:41.304Z,8.85
2022-10-28T18:06:45.385Z,7.50
2022-10-28T18:11:49.541Z,4.45
2022-10-28T18:16:55.053Z,4.10
2022-10-28T18:21:59.571Z,3.83
2022-10-28T18:27:03.813Z,6.43
2022-10-28T18:32:09.415Z,5.57
2022-10-28T18:37:14.801Z,10.77
2022-10-28T18:42:21.948Z,9.55
2022-10-28T18:47:28.077Z,7.47
2022-10-28T18:52:31.997Z,5.85
2022-10-28T18:57:36.156Z,5.00
2022-10-28T19:02:47.382Z,4.47
2022-10-28T19:07:52.112Z,9.38
2022-10-28T19:12:57.307Z,5.32
2022-10-28T19:18:03.160Z,4.47
2022-10-28T19:23:07.795Z,3.90
2022-10-28T19:28:12.581Z,6.90
2022-10-28T19:33:18.281Z,3.40
2022-10-28T19:38:22.767Z,3.83
2022-10-28T19:43:26.827Z,4.82
2022-10-28T19:48:33.052Z,3.50
2022-10-28T19:53:37.451Z,4.90
2022-10-28T19:58:41.819Z,5.45
2022-10-28T20:03:49.348Z,4.13
2022-10-28T20:08:53.756Z,4.93
2022-10-28T20:14:00.948Z,4.40
2022-10-28T20:19:06.846Z,5.43
2022-10-28T20:24:10.807Z,5.05
2022-10-28T20:29:14.697Z,6.35
2022-10-28T20:34:20.141Z,6.25
2022-10-28T20:39:24.137Z,4.90
2022-10-28T20:44:28.676Z,4.32
2022-10-28T20:49:34.625Z,5.43
2022-10-28T20:54:39.063Z,5.45
2022-10-28T20:59:43.020Z,3.72
2022-10-28T21:04:49.126Z,4.78
2022-10-28T21:09:53.306Z,3.75
2022-10-28T21:14:57.315Z,3.55
2022-10-28T21:20:02.642Z,3.90
2022-10-28T21:25:07.702Z,3.88
2022-10-28T21:30:13.308Z,4.32
2022-10-28T21:35:19.261Z,3.58
2022-10-28T21:40:23.539Z,3.60
2022-10-28T21:45:27.483Z,3.90
2022-10-28T21:50:33.061Z,3.72
2022-10-28T21:55:46.796Z,4.60
2022-10-28T22:00:51.682Z,4.18
2022-10-28T22:05:57.339Z,3.42
2022-10-28T22:11:02.903Z,3.83
2022-10-28T22:16:08.988Z,4.57
2022-10-28T22:21:16.597Z,3.75
2022-10-28T22:26:22.826Z,3.60
2022-10-28T22:31:29.141Z,3.08
2022-10-28T22:36:34.497Z,4.38
2022-10-28T22:41:38.376Z,2.90
2022-10-28T22:46:43.330Z,3.00
2022-10-28T22:51:48.636Z,3.17
2022-10-28T22:56:52.685Z,2.95
2022-10-28T23:01:56.991Z,3.40
2022-10-28T23:07:02.523Z,3.47
2022-10-28T23:12:07.132Z,4.15
2022-10-28T23:17:11.126Z,4.80
2022-10-28T23:22:16.506Z,3.85
2022-10-28T23:27:20.808Z,3.80
2022-10-28T23:32:25.958Z,3.15
2022-10-28T23:37:31.345Z,4.45
2022-10-28T23:42:35.256Z,3.60
2022-10-28T23:47:39.182Z,3.80
2022-10-28T23:52:44.530Z,3.40
2022-10-28T23:57:48.470Z,3.53
